Terminal Aerodrome Forecast
Issued by NWS Twin Cities, MN

Home | Current Version | Previous Version | Graphics & Text | Print | Product List | Glossary Off
Versions: 1 2 3 4 5 6 7 8 9 10 11 12 13 14 15 16 17

000
FTUS43 KMPX 251300 AAA
TAFEAU
TAF AMD
KEAU 251333Z 2514/2612 18009KT P6SM -SHRA SCT015 OVC040
      TEMPO 2514/2516 BKN015
     FM251600 18007KT P6SM SCT025 BKN040
     FM260200 19004KT 4SM BR SCT040
     FM260400 VRB03KT 1SM BR SCT007=

USA.gov is the U.S. government's official web portal to all federal, state and local government web resources and services.